Map

Track Data

SID SEASON NUMBER BASIN SUBBASIN NAME ISO_TIME NATURE LAT LON WMO_WIND WMO_PRES WMO_AGENCY TRACK_TYPE DIST2LAND LANDFALL IFLAG USA_AGENCY USA_ATCF_ID USA_LAT USA_LON USA_RECORD USA_STATUS USA_WIND USA_PRES USA_SSHS USA_R34_NE USA_R34_SE USA_R34_SW USA_R34_NW USA_R50_NE USA_R50_SE USA_R50_SW USA_R50_NW USA_R64_NE USA_R64_SE USA_R64_SW USA_R64_NW USA_POCI USA_ROCI USA_RMW USA_EYE TOKYO_LAT TOKYO_LON TOKYO_GRADE TOKYO_WIND TOKYO_PRES TOKYO_R50_DIR TOKYO_R50_LONG TOKYO_R50_SHORT TOKYO_R30_DIR TOKYO_R30_LONG TOKYO_R30_SHORT TOKYO_LAND CMA_LAT CMA_LON CMA_CAT CMA_WIND CMA_PRES HKO_LAT HKO_LON HKO_CAT HKO_WIND HKO_PRES NEWDELHI_LAT NEWDELHI_LON NEWDELHI_GRADE NEWDELHI_WIND NEWDELHI_PRES NEWDELHI_CI NEWDELHI_DP NEWDELHI_POCI REUNION_LAT REUNION_LON REUNION_TYPE REUNION_WIND REUNION_PRES REUNION_TNUM REUNION_CI REUNION_RMW REUNION_R34_NE REUNION_R34_SE REUNION_R34_SW REUNION_R34_NW REUNION_R50_NE REUNION_R50_SE REUNION_R50_SW REUNION_R50_NW REUNION_R64_NE REUNION_R64_SE REUNION_R64_SW REUNION_R64_NW BOM_LAT BOM_LON BOM_TYPE BOM_WIND BOM_PRES BOM_TNUM BOM_CI BOM_RMW BOM_R34_NE BOM_R34_SE BOM_R34_SW BOM_R34_NW BOM_R50_NE BOM_R50_SE BOM_R50_SW BOM_R50_NW BOM_R64_NE BOM_R64_SE BOM_R64_SW BOM_R64_NW BOM_ROCI BOM_POCI BOM_EYE BOM_POS_METHOD BOM_PRES_METHOD NADI_LAT NADI_LON NADI_CAT NADI_WIND NADI_PRES WELLINGTON_LAT WELLINGTON_LON WELLINGTON_WIND WELLINGTON_PRES DS824_LAT DS824_LON DS824_STAGE DS824_WIND DS824_PRES TD9636_LAT TD9636_LON TD9636_STAGE TD9636_WIND TD9636_PRES TD9635_LAT TD9635_LON TD9635_WIND TD9635_PRES TD9635_ROCI NEUMANN_LAT NEUMANN_LON NEUMANN_CLASS NEUMANN_WIND NEUMANN_PRES MLC_LAT MLC_LON MLC_CLASS MLC_WIND MLC_PRES USA_GUST BOM_GUST BOM_GUST_PER REUNION_GUST REUNION_GUST_PER USA_SEAHGT USA_SEARAD_NE USA_SEARAD_SE USA_SEARAD_SW USA_SEARAD_NW STORM_SPEED STORM_DIR
1924146N19114 1924 10 WP MM NOT_NAMED 1924-05-24 22:00:00 NR 18.8000 114.200 main 347 347 __________O___ -1 18.8000 114.200 4 9 76
1924146N19114 1924 10 WP MM NOT_NAMED 1924-05-25 00:00:00 NR 18.8706 114.507 main 370 370 __________P___ -1 18.8706 114.507 4 9 76
1924146N19114 1924 10 WP MM NOT_NAMED 1924-05-25 03:00:00 NR 18.9746 114.966 main 376 372 __________P___ -1 18.9746 114.966 4 9 77
1924146N19114 1924 10 WP MM NOT_NAMED 1924-05-25 06:00:00 NR 19.0748 115.417 main 375 375 __________P___ -1 19.0748 115.417 4 9 77
1924146N19114 1924 10 WP MM NOT_NAMED 1924-05-25 09:00:00 NR 19.1698 115.857 main 383 383 __________P___ -1 19.1698 115.857 4 8 77
1924146N19114 1924 10 WP MM NOT_NAMED 1924-05-25 10:00:00 NR 19.2000 116.000 main 386 383 __________O___ -1 19.2000 116.000 4 8 78
1924146N19114 1924 10 WP MM NOT_NAMED 1924-05-25 12:00:00 NR 19.2581 116.281 main 383 383 __________P___ -1 19.2581 116.281 4 8 78
1924146N19114 1924 10 WP MM NOT_NAMED 1924-05-25 15:00:00 NR 19.3391 116.689 main 391 383 __________P___ -1 19.3391 116.689 4 8 78
1924146N19114 1924 10 WP MM NOT_NAMED 1924-05-25 18:00:00 NR 19.4129 117.086 main 384 348 __________P___ -1 19.4129 117.086 4 8 79
1924146N19114 1924 10 WP MM NOT_NAMED 1924-05-25 21:00:00 NR 19.4795 117.473 main 348 338 __________P___ -1 19.4795 117.473 4 7 80
1924146N19114 1924 10 WP MM NOT_NAMED 1924-05-25 22:00:00 NR 19.5000 117.600 main 338 309 __________O___ -1 19.5000 117.600 4 8 81
1924146N19114 1924 10 WP MM NOT_NAMED 1924-05-26 00:00:00 NR 19.5390 117.866 main 309 276 __________P___ -1 19.5390 117.866 4 8 82
1924146N19114 1924 10 WP MM NOT_NAMED 1924-05-26 03:00:00 NR 19.5912 118.260 main 276 249 __________P___ -1 19.5912 118.260 4 7 82
1924146N19114 1924 10 WP MM NOT_NAMED 1924-05-26 06:00:00 NR 19.6387 118.637 main 249 222 __________P___ -1 19.6387 118.637 4 7 82
1924146N19114 1924 10 WP MM NOT_NAMED 1924-05-26 09:00:00 NR 19.6846 118.990 main 222 214 __________P___ -1 19.6846 118.990 4 7 82
1924146N19114 1924 10 WP MM NOT_NAMED 1924-05-26 10:00:00 NR 19.7000 119.100 main 214 199 __________O___ -1 19.7000 119.100 4 6 81
1924146N19114 1924 10 WP MM NOT_NAMED 1924-05-26 12:00:00 NR 19.7317 119.309 main 199 184 __________P___ -1 19.7317 119.309 4 6 80
1924146N19114 1924 10 WP MM NOT_NAMED 1924-05-26 15:00:00 NR 19.7809 119.597 main 184 164 __________P___ -1 19.7809 119.597 4 5 79
1924146N19114 1924 10 WP MM NOT_NAMED 1924-05-26 18:00:00 NR 19.8315 119.863 main 164 162 __________P___ -1 19.8315 119.863 4 5 78
1924146N19114 1924 10 WP MM NOT_NAMED 1924-05-26 21:00:00 NR 19.8829 120.117 main 162 158 __________P___ -1 19.8829 120.117 4 5 78
1924146N19114 1924 10 WP MM NOT_NAMED 1924-05-26 22:00:00 NR 19.9000 120.200 main 158 __________O___ -1 19.9000 120.200 7 5 77

Digital Typhoon Data and Search

About IBTrACS Database

This database is a web-friendly format of International Best Track Archive for Climate Stewardship (IBTrACS), a global best track data archive curated by NOAA dating back to 1842.

Updated: 2021-11-26